createdAt,value
2019-03-16T00:00:57.668Z,52.37
2019-03-16T00:01:57.720Z,53.33
2019-03-16T00:02:57.472Z,52.47
2019-03-16T00:03:57.367Z,53.23
2019-03-16T00:04:57.265Z,52.85
2019-03-16T00:05:57.166Z,52.85
2019-03-16T00:06:57.087Z,53.42
2019-03-16T00:07:56.967Z,53.23
2019-03-16T00:08:56.868Z,53.33
2019-03-16T00:09:56.773Z,53.23
2019-03-16T00:10:56.668Z,53.23
2019-03-16T00:11:56.728Z,52.37
2019-03-16T00:12:56.466Z,52.76
2019-03-16T00:13:56.370Z,51.81
2019-03-16T00:14:56.265Z,53.04
2019-03-16T00:15:56.166Z,52.66
2019-03-16T00:16:56.084Z,52.00
2019-03-16T00:17:55.967Z,51.90
2019-03-16T00:18:55.866Z,51.90
2019-03-16T00:19:55.768Z,51.72
2019-03-16T00:20:55.666Z,51.24
2019-03-16T00:21:55.573Z,51.05
2019-03-16T00:22:55.485Z,51.43
2019-03-16T00:23:55.365Z,51.24
2019-03-16T00:24:55.270Z,50.57
2019-03-16T00:25:55.163Z,50.67
2019-03-16T00:26:55.070Z,50.67
2019-03-16T00:27:54.983Z,50.01
2019-03-16T00:28:54.870Z,50.48
2019-03-16T00:29:54.768Z,50.95
2019-03-16T00:30:54.770Z,50.95
2019-03-16T00:31:54.567Z,51.90
2019-03-16T00:32:54.485Z,51.62
2019-03-16T00:33:54.365Z,51.81
2019-03-16T00:34:54.265Z,53.14
2019-03-16T00:35:54.164Z,53.42
2019-03-16T00:36:54.068Z,53.04
2019-03-16T00:37:54.095Z,53.80
2019-03-16T00:38:53.873Z,53.14
2019-03-16T00:39:53.766Z,52.95
2019-03-16T00:40:53.664Z,53.04
2019-03-16T00:41:53.565Z,53.89
2019-03-16T00:42:53.497Z,53.99
2019-03-16T00:43:53.366Z,54.85
2019-03-16T00:44:53.370Z,55.60
2019-03-16T00:45:53.167Z,54.85
2019-03-16T00:46:53.068Z,55.98
2019-03-16T00:47:52.982Z,55.70
2019-03-16T00:48:52.865Z,57.03
2019-03-16T00:49:52.763Z,57.12
2019-03-16T00:50:52.669Z,57.88
2019-03-16T00:51:52.701Z,57.69
2019-03-16T00:52:52.480Z,56.93
2019-03-16T00:53:52.372Z,56.46
2019-03-16T00:54:52.263Z,56.36
2019-03-16T00:55:52.165Z,55.89
2019-03-16T00:56:52.066Z,56.27
2019-03-16T00:57:51.982Z,56.17
2019-03-16T00:58:51.967Z,56.55
2019-03-16T00:59:51.762Z,55.98
2019-03-16T01:00:51.665Z,56.84
2019-03-16T01:01:51.566Z,56.46
2019-03-16T01:02:51.480Z,56.84
2019-03-16T01:03:51.365Z,58.36
2019-03-16T01:04:51.263Z,58.26
2019-03-16T01:05:51.168Z,57.88
2019-03-16T01:06:51.062Z,57.98
2019-03-16T01:07:50.983Z,57.88
2019-03-16T01:08:50.862Z,57.03
2019-03-16T01:09:50.761Z,57.03
2019-03-16T01:10:50.660Z,56.84
2019-03-16T01:11:50.561Z,57.40
2019-03-16T01:12:50.479Z,57.21
2019-03-16T01:13:50.363Z,58.26
2019-03-16T01:14:50.261Z,58.45
2019-03-16T01:15:50.165Z,59.30
2019-03-16T01:16:50.061Z,59.30
2019-03-16T01:17:49.975Z,58.36
2019-03-16T01:18:49.859Z,59.88
2019-03-16T01:19:49.760Z,60.73
2019-03-16T01:20:49.664Z,60.82
2019-03-16T01:21:49.608Z,60.92
2019-03-16T01:22:49.478Z,61.20
2019-03-16T01:23:49.361Z,61.39
2019-03-16T01:24:49.259Z,61.87
2019-03-16T01:25:49.161Z,62.05
2019-03-16T01:26:49.065Z,61.77
2019-03-16T01:27:48.976Z,61.77
2019-03-16T01:28:48.858Z,62.97
2019-03-16T01:29:48.769Z,62.78
2019-03-16T01:30:48.680Z,62.88
2019-03-16T01:31:48.557Z,62.59
2019-03-16T01:32:48.475Z,63.35
2019-03-16T01:33:48.359Z,64.30
2019-03-16T01:34:48.255Z,64.87
2019-03-16T01:35:48.155Z,64.11
2019-03-16T01:36:48.057Z,64.40
2019-03-16T01:37:47.979Z,64.49
2019-03-16T01:38:47.854Z,65.91
2019-03-16T01:39:47.755Z,66.10
2019-03-16T01:40:47.657Z,65.91
2019-03-16T01:41:47.558Z,65.91
2019-03-16T01:42:47.472Z,65.91
2019-03-16T01:43:47.362Z,65.25
2019-03-16T01:44:47.259Z,64.78
2019-03-16T01:45:47.154Z,64.78
2019-03-16T01:46:47.051Z,64.97
2019-03-16T01:47:46.970Z,65.44
2019-03-16T01:48:46.961Z,64.78
2019-03-16T01:49:46.754Z,64.87
2019-03-16T01:50:46.661Z,64.87
2019-03-16T01:51:46.551Z,64.68
2019-03-16T01:52:46.474Z,64.40
2019-03-16T01:53:46.351Z,64.30
2019-03-16T01:54:46.383Z,64.30
2019-03-16T01:55:46.149Z,63.54
2019-03-16T01:56:46.051Z,62.69
2019-03-16T01:57:45.968Z,64.01
2019-03-16T01:58:45.853Z,63.35
2019-03-16T01:59:45.750Z,63.92
2019-03-16T02:00:45.648Z,62.97
2019-03-16T02:01:45.549Z,63.45
2019-03-16T02:02:54.993Z,63.35
2019-03-16T02:03:45.435Z,63.26
2019-03-16T02:04:45.249Z,63.07
2019-03-16T02:05:45.156Z,63.35
2019-03-16T02:06:45.046Z,63.26
2019-03-16T02:07:44.952Z,63.17
2019-03-16T02:08:44.862Z,63.07
2019-03-16T02:09:44.746Z,62.31
2019-03-16T02:10:44.644Z,62.50
2019-03-16T02:11:44.545Z,62.78
2019-03-16T02:12:44.446Z,62.59
2019-03-16T02:13:44.364Z,62.59
2019-03-16T02:14:44.242Z,62.21
2019-03-16T02:15:44.167Z,62.31
2019-03-16T02:16:44.042Z,62.78
2019-03-16T02:17:43.944Z,63.54
2019-03-16T02:18:43.858Z,62.88
2019-03-16T02:19:43.742Z,62.59
2019-03-16T02:20:43.641Z,63.35
2019-03-16T02:21:43.558Z,63.07
2019-03-16T02:22:43.441Z,63.07
2019-03-16T02:23:43.356Z,64.20
2019-03-16T02:24:43.241Z,63.92
2019-03-16T02:25:43.141Z,64.30
2019-03-16T02:26:43.041Z,64.40
2019-03-16T02:27:42.943Z,63.82
2019-03-16T02:28:42.855Z,63.73
2019-03-16T02:29:42.782Z,63.64
2019-03-16T02:30:42.684Z,63.82
2019-03-16T02:31:42.536Z,63.82
2019-03-16T02:32:42.452Z,63.73
2019-03-16T02:33:42.354Z,64.30
2019-03-16T02:34:42.264Z,64.11
2019-03-16T02:35:42.136Z,63.92
2019-03-16T02:36:42.038Z,64.11
2019-03-16T02:37:41.936Z,63.82
2019-03-16T02:38:41.851Z,63.17
2019-03-16T02:39:41.733Z,63.92
2019-03-16T02:40:41.631Z,63.54
2019-03-16T02:41:41.535Z,63.73
2019-03-16T02:42:41.433Z,64.11
2019-03-16T02:43:41.348Z,64.78
2019-03-16T02:44:41.239Z,64.30
2019-03-16T02:45:41.135Z,64.49
2019-03-16T02:46:41.029Z,64.01
2019-03-16T02:47:40.932Z,63.92
2019-03-16T02:48:40.845Z,64.01
2019-03-16T02:49:40.733Z,63.73
2019-03-16T02:50:40.633Z,64.11
2019-03-16T02:51:40.529Z,64.87
2019-03-16T02:52:40.435Z,64.30
2019-03-16T02:53:40.374Z,65.91
2019-03-16T02:54:40.249Z,64.59
2019-03-16T02:55:40.126Z,64.59
2019-03-16T02:56:40.026Z,64.59
2019-03-16T02:57:39.947Z,63.26
2019-03-16T02:58:39.842Z,63.45
2019-03-16T02:59:39.725Z,63.45
2019-03-16T03:00:39.629Z,63.26
2019-03-16T03:01:39.529Z,63.45
2019-03-16T03:02:39.433Z,64.20
2019-03-16T03:03:39.340Z,63.35
2019-03-16T03:04:39.220Z,63.45
2019-03-16T03:05:39.120Z,62.59
2019-03-16T03:06:39.019Z,62.78
2019-03-16T03:07:38.918Z,62.59
2019-03-16T03:08:38.842Z,62.59
2019-03-16T03:09:38.732Z,62.12
2019-03-16T03:10:38.621Z,62.78
2019-03-16T03:11:38.625Z,62.88
2019-03-16T03:12:38.420Z,62.50
2019-03-16T03:13:38.334Z,61.74
2019-03-16T03:14:38.218Z,61.55
2019-03-16T03:15:38.121Z,60.89
2019-03-16T03:16:38.013Z,61.46
2019-03-16T03:17:37.915Z,61.08
2019-03-16T03:18:37.933Z,61.17
2019-03-16T03:19:37.711Z,61.46
2019-03-16T03:20:37.613Z,60.41
2019-03-16T03:21:37.511Z,60.60
2019-03-16T03:22:37.408Z,59.84
2019-03-16T03:23:37.333Z,59.56
2019-03-16T03:24:37.213Z,58.70
2019-03-16T03:25:37.121Z,58.23
2019-03-16T03:26:37.010Z,57.76
2019-03-16T03:27:36.909Z,56.99
2019-03-16T03:28:36.940Z,56.34
2019-03-16T03:29:36.705Z,55.86
2019-03-16T03:30:36.607Z,55.29
2019-03-16T03:31:36.505Z,55.00
2019-03-16T03:32:36.510Z,54.44
2019-03-16T03:33:57.483Z,53.49
2019-03-16T03:34:36.216Z,53.20
2019-03-16T03:35:36.103Z,52.35
2019-03-16T03:36:36.010Z,52.06
2019-03-16T03:37:35.900Z,51.12
2019-03-16T03:38:35.815Z,50.55
2019-03-16T03:39:35.809Z,49.98
2019-03-16T03:40:35.597Z,49.98
2019-03-16T03:41:35.498Z,49.32
2019-03-16T03:42:35.502Z,48.75
2019-03-16T03:43:35.319Z,48.84
2019-03-16T03:44:35.201Z,48.65
2019-03-16T03:45:35.099Z,47.80
2019-03-16T03:46:35.101Z,46.66
2019-03-16T03:47:34.896Z,46.47
2019-03-16T03:48:34.810Z,45.62
2019-03-16T03:49:34.693Z,45.24
2019-03-16T03:50:34.596Z,45.14
2019-03-16T03:51:34.494Z,44.48
2019-03-16T03:52:34.396Z,44.85
2019-03-16T03:53:34.428Z,44.01
2019-03-16T03:54:34.212Z,43.05
2019-03-16T03:55:34.089Z,43.34
2019-03-16T03:56:33.990Z,43.23
2019-03-16T03:57:33.887Z,43.13
2019-03-16T03:58:33.788Z,43.53
2019-03-16T03:59:33.700Z,43.15
2019-03-16T04:00:33.693Z,43.13
2019-03-16T04:01:33.497Z,43.04
2019-03-16T04:02:33.384Z,43.13
2019-03-16T04:03:33.287Z,43.32
2019-03-16T04:04:33.203Z,43.41
2019-03-16T04:05:33.095Z,43.41
2019-03-16T04:06:32.982Z,43.60
2019-03-16T04:07:32.985Z,42.94
2019-03-16T04:08:32.788Z,43.13
2019-03-16T04:09:32.695Z,43.32
2019-03-16T04:10:32.589Z,43.13
2019-03-16T04:11:32.481Z,43.41
2019-03-16T04:12:32.377Z,42.75
2019-03-16T04:13:32.282Z,42.75
2019-03-16T04:14:32.296Z,42.37
2019-03-16T04:15:32.077Z,41.89
2019-03-16T04:16:31.978Z,41.42
2019-03-16T04:17:31.879Z,41.42
2019-03-16T04:18:31.772Z,40.95
2019-03-16T04:19:31.687Z,40.00
2019-03-16T04:20:31.580Z,39.15
2019-03-16T04:21:31.575Z,38.29
2019-03-16T04:22:31.369Z,37.63
2019-03-16T04:23:31.267Z,37.54
2019-03-16T04:24:31.193Z,36.21
2019-03-16T04:25:31.070Z,35.93
2019-03-16T04:26:30.967Z,35.55
2019-03-16T04:27:30.865Z,35.07
2019-03-16T04:28:30.939Z,35.17
2019-03-16T04:29:30.683Z,34.59
2019-03-16T04:30:30.564Z,34.41
2019-03-16T04:31:30.463Z,33.56
2019-03-16T04:32:30.363Z,33.08
2019-03-16T04:33:30.260Z,32.60
2019-03-16T04:34:30.237Z,32.32
2019-03-16T04:35:30.162Z,31.66
2019-03-16T04:36:29.959Z,31.85
2019-03-16T04:37:29.860Z,31.47
2019-03-16T04:38:29.761Z,31.75
2019-03-16T04:39:29.672Z,31.18
2019-03-16T04:40:29.562Z,31.37
2019-03-16T04:41:29.453Z,31.47
2019-03-16T04:42:29.357Z,31.28
2019-03-16T04:43:29.255Z,31.75
2019-03-16T04:44:29.168Z,31.75
2019-03-16T04:45:29.051Z,31.37
2019-03-16T04:46:31.418Z,31.47
2019-03-16T04:47:28.849Z,31.37
2019-03-16T04:48:28.753Z,31.47
2019-03-16T04:49:28.673Z,31.37
2019-03-16T04:50:28.548Z,31.37
2019-03-16T04:51:28.448Z,31.28
2019-03-16T04:52:28.345Z,31.37
2019-03-16T04:53:28.248Z,30.90
2019-03-16T04:54:28.165Z,30.71
2019-03-16T04:55:28.043Z,30.80
2019-03-16T04:56:27.947Z,30.62
2019-03-16T04:57:27.845Z,30.71
2019-03-16T04:58:27.743Z,30.52
2019-03-16T04:59:27.657Z,30.80
2019-03-16T05:00:27.538Z,30.99
2019-03-16T05:01:27.439Z,31.37
2019-03-16T05:02:27.337Z,31.56
2019-03-16T05:03:27.240Z,31.28
2019-03-16T05:04:27.156Z,31.18
2019-03-16T05:05:27.037Z,30.90
2019-03-16T05:06:26.935Z,31.37
2019-03-16T05:07:26.838Z,31.85
2019-03-16T05:08:26.734Z,32.42
2019-03-16T05:09:26.650Z,35.07
2019-03-16T05:10:26.532Z,36.59
2019-03-16T05:11:26.433Z,36.78
2019-03-16T05:12:26.329Z,36.21
2019-03-16T05:13:26.229Z,35.93
2019-03-16T05:14:26.145Z,35.64
2019-03-16T05:15:26.030Z,35.17
2019-03-16T05:16:25.924Z,34.78
2019-03-16T05:17:25.824Z,34.22
2019-03-16T05:18:25.725Z,33.56
2019-03-16T05:19:25.642Z,32.60
2019-03-16T05:20:25.522Z,32.89
2019-03-16T05:21:25.422Z,32.14
2019-03-16T05:22:25.324Z,32.23
2019-03-16T05:23:25.270Z,32.32
2019-03-16T05:24:25.136Z,31.75
2019-03-16T05:25:25.024Z,31.47
2019-03-16T05:26:24.921Z,31.18
2019-03-16T05:27:24.815Z,30.80
2019-03-16T05:28:24.714Z,30.24
2019-03-16T05:29:24.628Z,30.33
2019-03-16T05:30:24.511Z,30.33
2019-03-16T05:31:24.411Z,30.43
2019-03-16T05:32:24.313Z,30.62
2019-03-16T05:33:24.212Z,30.14
2019-03-16T05:34:24.137Z,30.71
2019-03-16T05:35:24.099Z,30.80
2019-03-16T05:36:23.910Z,30.52
2019-03-16T05:37:23.809Z,31.37
2019-03-16T05:38:23.707Z,31.75
2019-03-16T05:39:28.090Z,31.75
2019-03-16T05:40:23.509Z,32.23
2019-03-16T05:41:23.405Z,31.85
2019-03-16T05:42:23.304Z,31.66
2019-03-16T05:43:23.201Z,31.75
2019-03-16T05:44:23.228Z,31.47
2019-03-16T05:45:23.047Z,31.66
2019-03-16T05:46:22.898Z,31.95
2019-03-16T05:47:22.796Z,31.85
2019-03-16T05:48:22.696Z,31.56
2019-03-16T05:49:22.598Z,31.66
2019-03-16T05:50:22.512Z,31.47
2019-03-16T05:51:22.500Z,31.85
2019-03-16T05:52:22.293Z,31.75
2019-03-16T05:53:22.195Z,31.56
2019-03-16T05:54:22.093Z,31.66
2019-03-16T05:55:22.010Z,31.47
2019-03-16T05:56:21.891Z,31.66
2019-03-16T05:57:21.789Z,31.75
2019-03-16T05:58:21.791Z,31.28
2019-03-16T05:59:21.587Z,30.99
2019-03-16T06:00:21.504Z,30.52
2019-03-16T06:01:21.386Z,30.33
2019-03-16T06:02:21.282Z,30.05
2019-03-16T06:03:21.184Z,30.05
2019-03-16T06:04:21.083Z,29.95
2019-03-16T06:05:21.104Z,29.95
2019-03-16T06:06:20.884Z,29.86
2019-03-16T06:07:20.779Z,29.76
2019-03-16T06:08:20.681Z,29.67
2019-03-16T06:09:20.579Z,29.57
2019-03-16T06:10:20.494Z,29.76
2019-03-16T06:11:20.375Z,30.05
2019-03-16T06:12:20.380Z,30.71
2019-03-16T06:13:20.176Z,31.66
2019-03-16T06:14:20.075Z,32.04
2019-03-16T06:15:19.988Z,32.23
2019-03-16T06:16:19.872Z,32.23
2019-03-16T06:17:19.770Z,32.14
2019-03-16T06:18:19.672Z,32.70
2019-03-16T06:19:19.682Z,32.89
2019-03-16T06:20:19.487Z,34.22
2019-03-16T06:21:19.448Z,34.41
2019-03-16T06:22:19.283Z,33.65
2019-03-16T06:23:19.166Z,33.27
2019-03-16T06:24:19.066Z,33.46
2019-03-16T06:25:18.987Z,32.98
2019-03-16T06:26:18.964Z,32.89
2019-03-16T06:27:18.862Z,32.98
2019-03-16T06:28:18.668Z,33.17
2019-03-16T06:29:18.565Z,32.79
2019-03-16T06:30:20.758Z,32.60
2019-03-16T06:31:18.364Z,33.27
2019-03-16T06:32:18.258Z,35.17
2019-03-16T06:33:18.156Z,36.87
2019-03-16T06:34:18.056Z,38.10
2019-03-16T06:35:24.455Z,37.63
2019-03-16T06:36:17.859Z,38.10
2019-03-16T06:37:17.758Z,37.54
2019-03-16T06:38:17.657Z,37.16
2019-03-16T06:39:17.553Z,38.10
2019-03-16T06:40:17.466Z,38.48
2019-03-16T06:41:17.350Z,38.77
2019-03-16T06:42:17.513Z,38.67
2019-03-16T06:43:17.148Z,38.39
2019-03-16T06:44:17.049Z,38.48
2019-03-16T06:45:16.963Z,38.29
2019-03-16T06:46:16.850Z,37.35
2019-03-16T06:47:16.751Z,36.78
2019-03-16T06:48:16.755Z,36.02
2019-03-16T06:49:16.545Z,35.55
2019-03-16T06:50:16.460Z,34.78
2019-03-16T06:51:16.343Z,34.31
2019-03-16T06:52:16.247Z,33.56
2019-03-16T06:53:19.456Z,33.17
2019-03-16T06:54:16.041Z,32.60
2019-03-16T06:55:16.060Z,32.23
2019-03-16T06:56:15.840Z,32.23
2019-03-16T06:57:15.836Z,31.37
2019-03-16T06:58:15.640Z,30.71
2019-03-16T06:59:15.536Z,30.71
2019-03-16T07:00:15.457Z,30.52
2019-03-16T07:01:15.339Z,29.95
2019-03-16T07:02:15.346Z,29.76
2019-03-16T07:03:15.133Z,29.38
2019-03-16T07:04:15.033Z,29.10
2019-03-16T07:05:14.955Z,28.81
2019-03-16T07:06:14.834Z,28.63
2019-03-16T07:07:14.731Z,28.44
2019-03-16T07:08:14.634Z,27.58
2019-03-16T07:09:14.534Z,27.68
2019-03-16T07:10:14.447Z,27.20
2019-03-16T07:11:14.331Z,26.73
2019-03-16T07:12:14.230Z,27.11
2019-03-16T07:13:14.133Z,26.92
2019-03-16T07:14:14.029Z,26.64
2019-03-16T07:15:13.944Z,26.54
2019-03-16T07:16:13.933Z,26.54
2019-03-16T07:17:13.727Z,26.45
2019-03-16T07:18:13.626Z,26.26
2019-03-16T07:19:13.542Z,26.26
2019-03-16T07:20:13.430Z,26.16
2019-03-16T07:21:13.345Z,26.16
2019-03-16T07:22:13.227Z,25.40
2019-03-16T07:23:13.239Z,25.88
2019-03-16T07:24:13.025Z,25.97
2019-03-16T07:25:12.944Z,25.78
2019-03-16T07:26:15.082Z,25.31
2019-03-16T07:27:25.401Z,25.68
2019-03-16T07:28:12.627Z,25.12
2019-03-16T07:29:12.551Z,25.59
2019-03-16T07:30:12.424Z,25.31
2019-03-16T07:31:12.339Z,24.93
2019-03-16T07:32:12.223Z,24.55
2019-03-16T07:33:12.133Z,25.12
2019-03-16T07:34:12.026Z,25.02
2019-03-16T07:35:11.930Z,25.02
2019-03-16T07:36:11.838Z,25.49
2019-03-16T07:37:11.722Z,25.31
2019-03-16T07:38:11.622Z,25.02
2019-03-16T07:39:11.522Z,24.93
2019-03-16T07:40:11.424Z,26.45
2019-03-16T07:41:11.339Z,27.20
2019-03-16T07:42:11.221Z,27.96
2019-03-16T07:43:11.223Z,28.44
2019-03-16T07:44:11.022Z,27.87
2019-03-16T07:45:10.924Z,27.39
2019-03-16T07:46:10.837Z,26.54
2019-03-16T07:47:10.725Z,25.79
2019-03-16T07:48:10.620Z,25.60
2019-03-16T07:49:10.520Z,25.51
2019-03-16T07:50:10.420Z,25.42
2019-03-16T07:51:10.341Z,25.13
2019-03-16T07:52:10.219Z,25.32
2019-03-16T07:53:10.120Z,27.12
2019-03-16T07:54:10.023Z,27.77
2019-03-16T07:55:09.923Z,27.78
2019-03-16T07:56:09.842Z,27.78
2019-03-16T07:57:09.720Z,27.40
2019-03-16T07:58:09.622Z,27.40
2019-03-16T07:59:09.523Z,27.03
2019-03-16T08:00:09.424Z,26.84
2019-03-16T08:01:09.337Z,26.75
2019-03-16T08:02:09.218Z,26.65
2019-03-16T08:03:09.119Z,27.12
2019-03-16T08:04:09.021Z,28.36
2019-03-16T08:05:17.950Z,29.11
2019-03-16T08:06:08.834Z,29.49
2019-03-16T08:07:08.728Z,28.83
2019-03-16T08:08:08.619Z,28.55
2019-03-16T08:09:08.542Z,29.49
2019-03-16T08:10:08.420Z,29.78
2019-03-16T08:11:08.339Z,29.78
2019-03-16T08:12:08.222Z,29.02
2019-03-16T08:13:08.121Z,28.74
2019-03-16T08:14:08.021Z,28.07
2019-03-16T08:15:07.923Z,27.78
2019-03-16T08:16:07.909Z,27.78
2019-03-16T08:17:07.721Z,27.98
2019-03-16T08:18:08.080Z,28.83
2019-03-16T08:19:07.521Z,28.55
2019-03-16T08:20:07.422Z,28.45
2019-03-16T08:21:07.339Z,28.26
2019-03-16T08:22:07.221Z,28.17
2019-03-16T08:23:07.123Z,28.45
2019-03-16T08:24:07.022Z,28.92
2019-03-16T08:25:06.928Z,28.74
2019-03-16T08:26:06.841Z,29.02
2019-03-16T08:27:07.635Z,29.21
2019-03-16T08:28:06.651Z,28.64
2019-03-16T08:29:06.527Z,28.55
2019-03-16T08:30:06.422Z,28.55
2019-03-16T08:31:06.340Z,28.92
2019-03-16T08:32:06.228Z,28.64
2019-03-16T08:33:06.124Z,29.97
2019-03-16T08:34:06.023Z,29.87
2019-03-16T08:35:05.924Z,28.74
2019-03-16T08:36:05.840Z,27.50
2019-03-16T08:37:05.723Z,27.12
2019-03-16T08:38:05.628Z,29.02
2019-03-16T08:39:05.528Z,29.49
2019-03-16T08:40:05.427Z,29.59
2019-03-16T08:41:05.346Z,29.87
2019-03-16T08:42:05.226Z,30.25
2019-03-16T08:43:05.128Z,30.82
2019-03-16T08:44:05.025Z,31.29
2019-03-16T08:45:04.925Z,32.15
2019-03-16T08:46:04.949Z,33.67
2019-03-16T08:47:04.725Z,34.52
2019-03-16T08:48:04.626Z,33.67
2019-03-16T08:49:04.528Z,34.42
2019-03-16T08:50:04.430Z,34.23
2019-03-16T08:51:04.397Z,33.48
2019-03-16T08:52:04.227Z,32.53
2019-03-16T08:53:04.232Z,32.91
2019-03-16T08:54:04.035Z,34.52
2019-03-16T08:55:03.930Z,35.66
2019-03-16T08:56:03.844Z,33.57
2019-03-16T08:57:03.733Z,33.29
2019-03-16T08:58:06.299Z,32.43
2019-03-16T08:59:03.534Z,31.68
2019-03-16T09:00:03.542Z,31.39
2019-03-16T09:01:03.350Z,31.39
2019-03-16T09:02:03.232Z,31.10
2019-03-16T09:03:03.134Z,31.10
2019-03-16T09:04:03.033Z,31.48
2019-03-16T09:05:02.933Z,32.91
2019-03-16T09:06:02.851Z,33.29
2019-03-16T09:07:02.838Z,32.34
2019-03-16T09:08:02.632Z,31.39
2019-03-16T09:09:02.534Z,30.16
2019-03-16T09:10:02.432Z,30.54
2019-03-16T09:11:02.335Z,30.83
2019-03-16T09:12:02.252Z,31.41
2019-03-16T09:13:02.144Z,32.45
2019-03-16T09:14:02.157Z,33.95
2019-03-16T09:15:01.936Z,35.09
2019-03-16T09:16:01.839Z,34.33
2019-03-16T09:17:01.754Z,33.48
2019-03-16T09:18:01.642Z,32.83
2019-03-16T09:19:01.538Z,31.41
2019-03-16T09:20:01.440Z,31.77
2019-03-16T09:21:01.523Z,31.41
2019-03-16T09:22:01.257Z,32.45
2019-03-16T09:23:01.140Z,32.91
2019-03-16T09:24:01.044Z,34.23
2019-03-16T09:25:00.942Z,35.57
2019-03-16T09:26:00.845Z,35.75
2019-03-16T09:27:00.758Z,35.57
2019-03-16T09:28:00.747Z,34.90
2019-03-16T09:29:00.569Z,35.94
2019-03-16T09:30:00.447Z,36.22
2019-03-16T09:31:00.345Z,35.66
2019-03-16T09:32:00.261Z,35.94
2019-03-16T09:33:00.152Z,35.85
2019-03-16T09:34:00.051Z,35.57
2019-03-16T09:35:00.053Z,34.90
2019-03-16T09:35:59.849Z,34.42
2019-03-16T09:36:59.769Z,34.54
2019-03-16T09:37:59.651Z,34.54
2019-03-16T09:38:59.551Z,34.06
2019-03-16T09:39:59.456Z,34.25
2019-03-16T09:40:59.354Z,33.40
2019-03-16T09:41:59.395Z,35.20
2019-03-16T09:42:59.214Z,34.73
2019-03-16T09:44:01.870Z,34.54
2019-03-16T09:44:58.953Z,36.05
2019-03-16T09:45:58.857Z,37.38
2019-03-16T09:46:58.777Z,37.48
2019-03-16T09:47:58.656Z,36.91
2019-03-16T09:48:58.675Z,35.39
2019-03-16T09:49:58.457Z,34.73
2019-03-16T09:50:58.359Z,36.15
2019-03-16T09:51:58.295Z,36.44
2019-03-16T09:52:58.165Z,36.24
2019-03-16T09:53:58.059Z,35.86
2019-03-16T09:54:57.970Z,36.72
2019-03-16T09:55:57.865Z,37.57
2019-03-16T09:57:01.449Z,35.68
2019-03-16T09:57:57.738Z,34.25
2019-03-16T09:58:57.565Z,33.30
2019-03-16T09:59:57.470Z,35.77
2019-03-16T10:00:57.380Z,35.96
2019-03-16T10:01:57.285Z,35.01
2019-03-16T10:02:57.171Z,35.77
2019-03-16T10:03:57.072Z,34.63
2019-03-16T10:04:56.970Z,33.69
2019-03-16T10:05:56.870Z,35.49
2019-03-16T10:06:56.794Z,35.77
2019-03-16T10:07:56.674Z,35.11
2019-03-16T10:08:56.575Z,34.54
2019-03-16T10:09:56.475Z,33.50
2019-03-16T10:10:56.374Z,32.92
2019-03-16T10:11:56.295Z,30.93
2019-03-16T10:12:56.176Z,30.83
2019-03-16T10:13:56.076Z,31.31
2019-03-16T10:14:55.977Z,31.50
2019-03-16T10:15:55.878Z,32.17
2019-03-16T10:16:55.795Z,32.92
2019-03-16T10:17:55.679Z,33.30
2019-03-16T10:18:55.580Z,32.92
2019-03-16T10:19:55.480Z,33.21
2019-03-16T10:20:55.385Z,32.64
2019-03-16T10:21:55.303Z,32.45
2019-03-16T10:22:55.183Z,31.98
2019-03-16T10:23:55.083Z,31.60
2019-03-16T10:24:54.984Z,31.21
2019-03-16T10:25:54.885Z,31.41
2019-03-16T10:26:54.802Z,31.79
2019-03-16T10:27:54.688Z,32.83
2019-03-16T10:28:54.594Z,32.07
2019-03-16T10:29:54.492Z,31.60
2019-03-16T10:30:54.391Z,31.33
2019-03-16T10:31:54.317Z,31.52
2019-03-16T10:32:54.191Z,31.71
2019-03-16T10:33:54.092Z,33.23
2019-03-16T10:34:54.003Z,32.92
2019-03-16T10:35:53.899Z,32.75
2019-03-16T10:36:53.811Z,32.75
2019-03-16T10:37:53.693Z,32.18
2019-03-16T10:38:53.597Z,32.37
2019-03-16T10:39:53.496Z,32.18
2019-03-16T10:40:53.398Z,32.94
2019-03-16T10:41:53.314Z,32.56
2019-03-16T10:42:53.197Z,32.46
2019-03-16T10:43:53.102Z,32.09
2019-03-16T10:44:53.002Z,31.52
2019-03-16T10:45:52.902Z,31.42
2019-03-16T10:46:52.807Z,31.33
2019-03-16T10:47:52.722Z,31.99
2019-03-16T10:48:52.605Z,31.61
2019-03-16T10:49:52.504Z,31.42
2019-03-16T10:50:52.410Z,31.99
2019-03-16T10:51:52.325Z,31.34
2019-03-16T10:52:52.214Z,31.34
2019-03-16T10:53:52.113Z,32.29
2019-03-16T10:54:52.015Z,34.38
2019-03-16T10:55:51.917Z,35.24
2019-03-16T10:56:51.817Z,34.86
2019-03-16T10:57:51.732Z,35.42
2019-03-16T10:58:56.585Z,34.57
2019-03-16T10:59:51.520Z,34.38
2019-03-16T11:00:51.418Z,35.24
2019-03-16T11:01:51.322Z,35.14
2019-03-16T11:02:51.241Z,34.48
2019-03-16T11:03:51.128Z,35.24
2019-03-16T11:04:51.026Z,36.00
2019-03-16T11:05:50.927Z,34.50
2019-03-16T11:06:50.830Z,35.90
2019-03-16T11:07:50.748Z,35.92
2019-03-16T11:08:50.631Z,36.68
2019-03-16T11:09:50.535Z,35.92
2019-03-16T11:10:50.437Z,36.49
2019-03-16T11:11:50.443Z,36.00
2019-03-16T11:12:50.258Z,35.63
2019-03-16T11:13:50.139Z,34.59
2019-03-16T11:14:50.044Z,35.92
2019-03-16T11:15:49.946Z,35.92
2019-03-16T11:16:49.869Z,35.54
2019-03-16T11:17:49.763Z,35.73
2019-03-16T11:18:49.649Z,36.30
2019-03-16T11:19:49.556Z,36.30
2019-03-16T11:20:49.459Z,36.30
2019-03-16T11:21:50.716Z,35.83
2019-03-16T11:22:49.277Z,34.78
2019-03-16T11:23:49.158Z,33.73
2019-03-16T11:24:49.066Z,33.83
2019-03-16T11:25:48.964Z,33.73
2019-03-16T11:26:48.866Z,33.45
2019-03-16T11:27:48.783Z,33.26
2019-03-16T11:28:48.669Z,33.36
2019-03-16T11:29:48.571Z,33.07
2019-03-16T11:30:48.474Z,32.69
2019-03-16T11:31:48.378Z,32.12
2019-03-16T11:32:48.399Z,32.03
2019-03-16T11:33:48.512Z,32.03
2019-03-16T11:34:48.083Z,32.03
2019-03-16T11:35:47.985Z,31.84
2019-03-16T11:36:47.887Z,31.45
2019-03-16T11:37:47.833Z,30.98
2019-03-16T11:38:47.719Z,30.51
2019-03-16T11:39:47.697Z,30.51
2019-03-16T11:40:47.496Z,30.03
2019-03-16T11:41:47.393Z,30.03
2019-03-16T11:42:47.319Z,30.31
2019-03-16T11:43:47.198Z,30.41
2019-03-16T11:44:47.099Z,29.84
2019-03-16T11:45:47.005Z,30.31
2019-03-16T11:46:46.907Z,30.03
2019-03-16T11:47:46.821Z,29.84
2019-03-16T11:48:46.708Z,29.74
2019-03-16T11:49:46.608Z,29.74
2019-03-16T11:50:48.787Z,29.64
2019-03-16T11:51:46.412Z,29.36
2019-03-16T11:52:46.335Z,29.08
2019-03-16T11:53:46.216Z,28.42
2019-03-16T11:54:46.119Z,28.90
2019-03-16T11:55:46.026Z,28.51
2019-03-16T11:56:45.946Z,28.05
2019-03-16T11:57:45.842Z,27.95
2019-03-16T11:58:45.733Z,27.95
2019-03-16T11:59:45.633Z,27.95
2019-03-16T12:00:45.532Z,27.67
2019-03-16T12:01:45.432Z,27.38
2019-03-16T12:02:45.350Z,27.38
2019-03-16T12:03:45.243Z,27.38
2019-03-16T12:04:45.141Z,26.81
2019-03-16T12:05:45.041Z,26.90
2019-03-16T12:06:44.945Z,26.81
2019-03-16T12:07:44.868Z,26.62
2019-03-16T12:08:45.065Z,26.43
2019-03-16T12:09:44.648Z,26.53
2019-03-16T12:10:44.552Z,26.72
2019-03-16T12:11:44.452Z,26.14
2019-03-16T12:12:44.378Z,26.53
2019-03-16T12:13:44.271Z,26.24
2019-03-16T12:14:44.157Z,26.14
2019-03-16T12:15:44.181Z,25.67
2019-03-16T12:16:43.959Z,25.76
2019-03-16T12:17:43.880Z,26.24
2019-03-16T12:18:43.770Z,25.67
2019-03-16T12:19:43.665Z,26.53
2019-03-16T12:20:43.570Z,26.81
2019-03-16T12:21:43.472Z,27.48
2019-03-16T12:22:43.498Z,27.28
2019-03-16T12:23:43.276Z,27.28
2019-03-16T12:24:43.177Z,27.76
2019-03-16T12:25:43.081Z,27.48
2019-03-16T12:26:42.979Z,29.57
2019-03-16T12:27:42.900Z,29.85
2019-03-16T12:28:42.787Z,30.99
2019-03-16T12:29:42.791Z,30.71
2019-03-16T12:30:42.588Z,30.23
2019-03-16T12:31:42.491Z,29.85
2019-03-16T12:32:42.409Z,29.75
2019-03-16T12:33:42.295Z,30.04
2019-03-16T12:34:42.198Z,29.95
2019-03-16T12:35:42.105Z,29.95
2019-03-16T12:36:42.107Z,29.75
2019-03-16T12:37:41.918Z,30.90
2019-03-16T12:38:41.807Z,31.66
2019-03-16T12:39:41.709Z,32.14
2019-03-16T12:40:41.608Z,33.84
2019-03-16T12:41:41.513Z,34.03
2019-03-16T12:42:41.416Z,35.08
2019-03-16T12:43:41.439Z,36.62
2019-03-16T12:44:41.219Z,36.24
2019-03-16T12:45:41.117Z,36.05
2019-03-16T12:46:41.020Z,36.43
2019-03-16T12:47:40.927Z,39.57
2019-03-16T12:48:40.843Z,41.28
2019-03-16T12:49:40.728Z,42.52
2019-03-16T12:50:40.738Z,45.09
2019-03-16T12:51:40.535Z,45.28